createdAt,value
2023-03-30T00:01:14.564Z,2.40
2023-03-30T00:03:43.126Z,2.50
2023-03-30T00:06:12.297Z,2.22
2023-03-30T00:08:39.380Z,2.30
2023-03-30T00:11:11.924Z,2.05
2023-03-30T00:13:39.204Z,2.30
2023-03-30T00:16:08.997Z,1.75
2023-03-30T00:18:36.686Z,2.30
2023-03-30T00:21:04.567Z,1.95
2023-03-30T00:23:32.409Z,2.17
2023-03-30T00:25:59.294Z,2.63
2023-03-30T00:28:27.042Z,2.40
2023-03-30T00:30:53.797Z,1.98
2023-03-30T00:33:27.760Z,1.90
2023-03-30T00:38:31.229Z,2.30
2023-03-30T00:41:00.638Z,2.88
2023-03-30T00:43:28.522Z,3.22
2023-03-30T00:45:57.194Z,4.13
2023-03-30T00:48:32.475Z,2.55
2023-03-30T00:51:04.842Z,3.00
2023-03-30T00:53:38.589Z,2.53
2023-03-30T00:56:07.592Z,3.60
2023-03-30T00:58:35.860Z,3.88
2023-03-30T01:01:06.902Z,2.67
2023-03-30T01:03:39.050Z,2.33
2023-03-30T01:06:10.032Z,2.53
2023-03-30T01:08:37.998Z,1.90
2023-03-30T01:11:07.122Z,1.67
2023-03-30T01:13:39.969Z,1.98
2023-03-30T01:16:27.236Z,2.05
2023-03-30T01:19:21.703Z,1.92
2023-03-30T01:22:14.893Z,2.20
2023-03-30T01:25:15.163Z,1.75
2023-03-30T01:28:13.232Z,1.80
2023-03-30T01:30:58.449Z,1.90
2023-03-30T01:34:08.280Z,2.40
2023-03-30T01:37:14.554Z,1.80
2023-03-30T01:40:19.052Z,1.65
2023-03-30T01:42:45.616Z,2.17
2023-03-30T01:45:20.692Z,1.73
2023-03-30T01:48:03.298Z,2.20
2023-03-30T01:50:39.034Z,2.47
2023-03-30T01:53:27.945Z,1.85
2023-03-30T01:55:59.957Z,1.60
2023-03-30T01:58:32.009Z,1.80
2023-03-30T02:01:01.630Z,2.67
2023-03-30T02:03:34.091Z,1.40
2023-03-30T02:06:17.785Z,1.80
2023-03-30T02:11:12.754Z,2.17
2023-03-30T02:13:42.222Z,2.28
2023-03-30T02:16:45.688Z,2.10
2023-03-30T02:19:12.878Z,2.20
2023-03-30T02:21:39.747Z,2.13
2023-03-30T02:24:11.086Z,2.10
2023-03-30T02:26:37.697Z,1.92
2023-03-30T02:29:04.325Z,2.08
2023-03-30T02:31:31.227Z,2.58
2023-03-30T02:34:24.323Z,1.90
2023-03-30T02:37:06.056Z,1.63
2023-03-30T02:39:58.792Z,2.03
2023-03-30T02:42:37.575Z,2.30
2023-03-30T02:45:32.899Z,2.17
2023-03-30T02:48:05.949Z,1.75
2023-03-30T02:50:57.934Z,2.05
2023-03-30T02:53:33.440Z,1.98
2023-03-30T02:56:14.298Z,2.28
2023-03-30T02:58:50.213Z,1.90
2023-03-30T03:01:23.000Z,2.28
2023-03-30T03:03:51.848Z,2.08
2023-03-30T03:06:20.399Z,1.60
2023-03-30T03:08:50.461Z,1.52
2023-03-30T03:11:17.036Z,1.50
2023-03-30T03:13:43.676Z,2.20
2023-03-30T03:16:12.144Z,2.10
2023-03-30T03:18:42.245Z,2.03
2023-03-30T03:21:10.163Z,2.20
2023-03-30T03:23:37.230Z,1.88
2023-03-30T03:26:04.772Z,1.95
2023-03-30T03:28:31.702Z,1.77
2023-03-30T03:30:59.830Z,1.58
2023-03-30T03:33:27.429Z,1.95
2023-03-30T03:35:54.417Z,2.67
2023-03-30T03:38:24.512Z,2.45
2023-03-30T03:40:52.958Z,1.98
2023-03-30T03:43:20.067Z,2.00
2023-03-30T03:45:47.469Z,2.20
2023-03-30T03:48:15.980Z,2.75
2023-03-30T03:50:43.484Z,2.65
2023-03-30T03:53:11.205Z,2.47
2023-03-30T03:55:38.341Z,2.47
2023-03-30T03:58:06.117Z,2.30
2023-03-30T04:00:33.835Z,3.40
2023-03-30T04:03:01.170Z,2.70
2023-03-30T04:05:28.003Z,3.00
2023-03-30T04:07:56.439Z,2.60
2023-03-30T04:10:24.152Z,2.30
2023-03-30T04:12:50.778Z,2.28
2023-03-30T04:15:17.461Z,2.38
2023-03-30T04:17:47.301Z,2.47
2023-03-30T04:20:15.314Z,3.10
2023-03-30T04:22:42.139Z,2.47
2023-03-30T04:25:15.035Z,2.35
2023-03-30T04:27:45.178Z,3.13
2023-03-30T04:30:12.707Z,3.75
2023-03-30T04:32:39.397Z,3.40
2023-03-30T04:35:07.054Z,4.82
2023-03-30T04:37:34.372Z,3.47
2023-03-30T04:40:07.039Z,3.20
2023-03-30T04:42:37.495Z,3.35
2023-03-30T04:45:05.976Z,2.88
2023-03-30T04:47:33.046Z,2.85
2023-03-30T04:50:01.015Z,3.13
2023-03-30T04:52:27.772Z,2.25
2023-03-30T04:54:54.472Z,2.65
2023-03-30T04:57:21.398Z,2.42
2023-03-30T04:59:47.999Z,3.10
2023-03-30T05:02:16.127Z,2.30
2023-03-30T05:04:42.785Z,2.60
2023-03-30T05:07:09.626Z,2.20
2023-03-30T05:09:36.402Z,1.95
2023-03-30T05:12:04.577Z,2.95
2023-03-30T05:14:31.243Z,2.85
2023-03-30T05:16:58.813Z,3.58
2023-03-30T05:19:25.878Z,2.35
2023-03-30T05:21:52.470Z,2.53
2023-03-30T05:24:19.049Z,2.53
2023-03-30T05:26:45.730Z,2.33
2023-03-30T05:29:12.432Z,2.60
2023-03-30T05:31:39.714Z,3.38
2023-03-30T05:34:06.651Z,2.63
2023-03-30T05:36:35.367Z,3.13
2023-03-30T05:39:04.978Z,2.33
2023-03-30T05:41:31.777Z,2.70
2023-03-30T05:43:58.386Z,3.47
2023-03-30T05:46:25.087Z,3.33
2023-03-30T05:48:51.995Z,3.47
2023-03-30T05:51:18.607Z,4.07
2023-03-30T05:53:45.404Z,4.70
2023-03-30T05:56:12.458Z,3.70
2023-03-30T05:58:39.141Z,3.67
2023-03-30T06:01:06.168Z,4.47
2023-03-30T06:03:33.111Z,3.58
2023-03-30T06:06:00.326Z,3.33
2023-03-30T06:08:27.128Z,3.22
2023-03-30T06:10:55.517Z,3.53
2023-03-30T06:13:22.405Z,3.33
2023-03-30T06:15:49.139Z,3.00
2023-03-30T06:18:16.129Z,2.70
2023-03-30T06:20:42.911Z,2.58
2023-03-30T06:23:09.515Z,3.50
2023-03-30T06:25:36.806Z,3.63
2023-03-30T06:28:03.755Z,4.43
2023-03-30T06:30:30.450Z,3.30
2023-03-30T06:32:57.106Z,3.85
2023-03-30T06:35:24.065Z,3.58
2023-03-30T06:37:50.752Z,3.30
2023-03-30T06:40:17.527Z,3.72
2023-03-30T06:42:44.420Z,2.60
2023-03-30T06:45:11.843Z,3.25
2023-03-30T06:47:39.163Z,2.63
2023-03-30T06:50:06.345Z,3.25
2023-03-30T06:52:37.320Z,3.22
2023-03-30T06:55:05.033Z,3.47
2023-03-30T06:57:32.303Z,2.90
2023-03-30T06:59:59.056Z,2.55
2023-03-30T07:02:26.410Z,2.90
2023-03-30T07:04:53.082Z,3.42
2023-03-30T07:07:19.806Z,3.45
2023-03-30T07:09:46.430Z,2.83
2023-03-30T07:12:13.030Z,2.90
2023-03-30T07:14:39.633Z,4.10
2023-03-30T07:17:07.862Z,3.08
2023-03-30T07:19:34.741Z,2.65
2023-03-30T07:22:02.127Z,3.00
2023-03-30T07:24:31.177Z,2.97
2023-03-30T07:26:57.845Z,3.83
2023-03-30T07:29:24.791Z,2.95
2023-03-30T07:31:51.438Z,3.65
2023-03-30T07:34:18.482Z,3.60
2023-03-30T07:36:45.073Z,3.15
2023-03-30T07:39:11.700Z,3.00
2023-03-30T07:41:38.286Z,2.97
2023-03-30T07:44:04.950Z,3.10
2023-03-30T07:46:31.648Z,3.17
2023-03-30T07:48:58.280Z,2.70
2023-03-30T07:51:27.807Z,3.65
2023-03-30T07:53:54.664Z,3.20
2023-03-30T07:56:21.283Z,3.13
2023-03-30T07:58:47.979Z,3.28
2023-03-30T08:01:14.666Z,2.92
2023-03-30T08:03:41.277Z,3.88
2023-03-30T08:06:08.702Z,4.93
2023-03-30T08:08:35.598Z,3.95
2023-03-30T08:11:02.540Z,3.10
2023-03-30T08:13:29.515Z,3.15
2023-03-30T08:15:56.496Z,2.90
2023-03-30T08:18:23.148Z,3.30
2023-03-30T08:20:54.014Z,2.97
2023-03-30T08:23:21.976Z,3.65
2023-03-30T08:25:52.481Z,4.60
2023-03-30T08:28:20.200Z,3.28
2023-03-30T08:30:47.532Z,2.85
2023-03-30T08:33:15.797Z,3.05
2023-03-30T08:35:46.655Z,3.30
2023-03-30T08:38:17.689Z,4.25
2023-03-30T08:40:47.605Z,2.53
2023-03-30T08:43:29.257Z,3.08
2023-03-30T08:46:00.639Z,3.47
2023-03-30T08:48:30.563Z,2.72
2023-03-30T08:51:08.015Z,2.97
2023-03-30T08:53:34.896Z,3.53
2023-03-30T08:56:10.447Z,3.08
2023-03-30T08:59:07.452Z,3.55
2023-03-30T09:01:43.370Z,3.28
2023-03-30T09:04:31.389Z,4.18
2023-03-30T09:07:14.282Z,3.40
2023-03-30T09:09:49.430Z,2.90
2023-03-30T09:12:52.526Z,3.45
2023-03-30T09:15:25.489Z,2.97
2023-03-30T09:18:00.585Z,2.50
2023-03-30T09:20:32.608Z,2.85
2023-03-30T09:23:01.729Z,3.60
2023-03-30T09:25:53.477Z,3.10
2023-03-30T09:28:32.901Z,2.83
2023-03-30T09:31:17.719Z,2.45
2023-03-30T09:33:59.068Z,2.50
2023-03-30T09:36:34.638Z,2.15
2023-03-30T09:39:01.430Z,2.60
2023-03-30T09:41:58.192Z,2.72
2023-03-30T09:44:40.099Z,2.50
2023-03-30T09:47:21.857Z,2.80
2023-03-30T09:49:48.613Z,3.97
2023-03-30T09:52:26.585Z,2.30
2023-03-30T09:54:53.276Z,2.20
2023-03-30T09:57:29.230Z,2.10
2023-03-30T09:59:57.591Z,2.00
2023-03-30T10:02:27.791Z,2.28
2023-03-30T10:05:00.566Z,1.98
2023-03-30T10:07:39.586Z,2.17
2023-03-30T10:10:27.148Z,2.08
2023-03-30T10:13:16.662Z,1.60
2023-03-30T10:15:46.983Z,1.77
2023-03-30T10:18:27.497Z,2.03
2023-03-30T10:21:16.750Z,1.65
2023-03-30T10:23:45.409Z,1.98
2023-03-30T10:26:19.617Z,1.50
2023-03-30T10:29:01.073Z,2.15
2023-03-30T10:31:28.413Z,1.80
2023-03-30T10:33:58.244Z,1.95
2023-03-30T10:36:33.714Z,1.98
2023-03-30T10:39:12.202Z,1.63
2023-03-30T10:41:41.174Z,1.75
2023-03-30T10:44:36.206Z,1.30
2023-03-30T10:47:24.172Z,1.90
2023-03-30T10:50:12.183Z,1.90
2023-03-30T10:52:59.057Z,1.75
2023-03-30T10:55:56.220Z,1.90
2023-03-30T10:58:34.419Z,1.67
2023-03-30T11:01:07.274Z,1.70
2023-03-30T11:03:35.336Z,1.67
2023-03-30T11:06:10.874Z,2.20
2023-03-30T11:08:42.544Z,1.80
2023-03-30T11:11:15.995Z,1.92
2023-03-30T11:13:46.751Z,2.08
2023-03-30T11:16:30.881Z,2.08
2023-03-30T11:19:03.713Z,1.85
2023-03-30T11:21:53.693Z,2.03
2023-03-30T11:24:22.745Z,1.55
2023-03-30T11:27:05.367Z,2.10
2023-03-30T11:29:58.920Z,1.42
2023-03-30T11:35:19.500Z,1.40
2023-03-30T11:38:07.010Z,1.92
2023-03-30T11:40:48.268Z,1.73
2023-03-30T11:43:19.629Z,1.67
2023-03-30T11:45:54.671Z,1.80
2023-03-30T11:48:36.298Z,1.83
2023-03-30T11:51:38.351Z,1.50
2023-03-30T11:54:26.607Z,1.83
2023-03-30T11:57:35.634Z,2.00
2023-03-30T12:00:27.366Z,1.88
2023-03-30T12:02:59.571Z,1.80
2023-03-30T12:05:37.766Z,2.10
2023-03-30T12:08:34.915Z,1.85
2023-03-30T12:11:12.633Z,1.88
2023-03-30T12:13:50.866Z,1.98
2023-03-30T12:16:41.474Z,2.08
2023-03-30T12:19:19.883Z,1.70
2023-03-30T12:22:04.179Z,1.65
2023-03-30T12:24:48.894Z,1.88
2023-03-30T12:27:15.462Z,2.10
2023-03-30T12:32:29.048Z,1.70
2023-03-30T12:34:57.990Z,1.95
2023-03-30T12:37:33.518Z,1.80
2023-03-30T12:40:09.579Z,2.10
2023-03-30T12:42:46.461Z,1.70
2023-03-30T12:45:16.512Z,1.80
2023-03-30T12:48:09.899Z,1.60
2023-03-30T12:53:31.309Z,1.90
2023-03-30T12:56:37.495Z,1.65
2023-03-30T12:59:22.868Z,1.35
2023-03-30T13:02:20.078Z,2.00
2023-03-30T13:04:49.146Z,1.50
2023-03-30T13:07:23.101Z,1.75
2023-03-30T13:09:59.203Z,2.03
2023-03-30T13:12:41.373Z,2.40
2023-03-30T13:15:17.129Z,2.22
2023-03-30T13:18:02.298Z,2.00
2023-03-30T13:20:35.160Z,1.83
2023-03-30T13:23:26.247Z,2.28
2023-03-30T13:26:34.966Z,2.05
2023-03-30T13:29:11.429Z,1.83
2023-03-30T13:31:52.818Z,1.55
2023-03-30T13:34:43.400Z,1.73
2023-03-30T13:37:58.803Z,1.70
2023-03-30T13:40:40.229Z,1.90
2023-03-30T13:43:31.905Z,2.83
2023-03-30T13:46:30.588Z,1.48
2023-03-30T13:49:16.132Z,1.92
2023-03-30T13:51:44.059Z,2.22
2023-03-30T13:54:18.813Z,1.92
2023-03-30T13:57:10.876Z,1.65
2023-03-30T13:59:51.348Z,1.75
2023-03-30T14:02:20.953Z,1.80
2023-03-30T14:04:49.404Z,2.10
2023-03-30T14:07:22.038Z,1.60
2023-03-30T14:10:09.001Z,1.40
2023-03-30T14:12:39.539Z,1.73
2023-03-30T14:15:18.678Z,1.55
2023-03-30T14:17:52.040Z,1.48
2023-03-30T14:20:41.920Z,1.70
2023-03-30T14:23:17.728Z,1.50
2023-03-30T14:25:45.606Z,1.60
2023-03-30T14:28:20.937Z,1.50
2023-03-30T14:30:52.109Z,1.40
2023-03-30T14:33:20.372Z,1.30
2023-03-30T14:35:58.324Z,1.20
2023-03-30T14:38:39.214Z,1.23
2023-03-30T14:41:13.687Z,1.48
2023-03-30T14:43:41.543Z,2.08
2023-03-30T14:46:12.416Z,1.30
2023-03-30T14:48:44.458Z,1.42
2023-03-30T14:51:37.197Z,1.35
2023-03-30T14:54:05.034Z,1.47
2023-03-30T14:56:32.085Z,1.10
2023-03-30T14:58:59.492Z,1.10
2023-03-30T15:01:31.976Z,0.93
2023-03-30T15:04:03.116Z,0.90
2023-03-30T15:06:30.809Z,1.05
2023-03-30T15:09:02.926Z,1.20
2023-03-30T15:11:32.486Z,0.90
2023-03-30T15:14:03.877Z,1.33
2023-03-30T15:16:33.444Z,1.20
2023-03-30T15:19:21.322Z,1.30
2023-03-30T15:21:53.440Z,1.20
2023-03-30T15:24:25.894Z,1.30
2023-03-30T15:26:56.061Z,1.25
2023-03-30T15:29:23.450Z,1.10
2023-03-30T15:32:19.014Z,1.42
2023-03-30T15:35:16.352Z,1.30
2023-03-30T15:38:02.294Z,1.15
2023-03-30T15:40:37.703Z,1.30
2023-03-30T15:43:19.103Z,1.33
2023-03-30T15:46:04.495Z,1.42
2023-03-30T15:48:40.892Z,1.10
2023-03-30T15:51:17.849Z,0.98
2023-03-30T15:53:47.508Z,1.30
2023-03-30T15:56:21.845Z,1.50
2023-03-30T15:58:50.719Z,1.30
2023-03-30T16:01:17.537Z,1.40
2023-03-30T16:03:52.917Z,1.48
2023-03-30T16:06:20.629Z,1.13
2023-03-30T16:08:47.317Z,1.20
2023-03-30T16:11:16.844Z,0.88
2023-03-30T16:13:48.072Z,0.98
2023-03-30T16:16:15.929Z,0.82
2023-03-30T16:18:42.843Z,1.30
2023-03-30T16:21:10.848Z,0.85
2023-03-30T16:23:38.153Z,1.02
2023-03-30T16:26:06.070Z,1.05
2023-03-30T16:28:32.894Z,0.52
2023-03-30T16:31:03.997Z,0.77
2023-03-30T16:33:30.923Z,0.98
2023-03-30T16:35:57.518Z,0.90
2023-03-30T16:38:24.152Z,2.55
2023-03-30T16:40:53.327Z,2.35
2023-03-30T16:43:19.907Z,2.22
2023-03-30T16:45:46.576Z,2.40
2023-03-30T16:48:15.050Z,2.20
2023-03-30T16:50:44.194Z,1.77
2023-03-30T16:53:11.545Z,1.10
2023-03-30T16:55:39.173Z,1.20
2023-03-30T16:58:07.758Z,0.85
2023-03-30T17:00:45.457Z,0.82
2023-03-30T17:03:12.262Z,0.82
2023-03-30T17:05:39.126Z,1.15
2023-03-30T17:08:11.567Z,0.80
2023-03-30T17:10:40.493Z,0.60
2023-03-30T17:13:08.147Z,0.90
2023-03-30T17:15:38.251Z,0.95
2023-03-30T17:18:14.260Z,0.57
2023-03-30T17:20:48.161Z,0.65
2023-03-30T17:23:16.820Z,0.70
2023-03-30T17:25:45.846Z,0.55
2023-03-30T17:28:28.776Z,1.38
2023-03-30T17:31:00.195Z,0.70
2023-03-30T17:33:27.028Z,1.00
2023-03-30T17:36:02.682Z,0.90
2023-03-30T17:38:31.706Z,0.82
2023-03-30T17:40:58.752Z,0.80
2023-03-30T17:43:25.479Z,0.77
2023-03-30T17:45:52.289Z,0.80
2023-03-30T17:48:21.196Z,0.65
2023-03-30T17:50:49.865Z,1.27
2023-03-30T17:53:17.965Z,0.80
2023-03-30T17:55:46.155Z,0.68
2023-03-30T17:58:31.862Z,0.57
2023-03-30T18:01:04.329Z,1.15
2023-03-30T18:03:31.609Z,0.98
2023-03-30T18:06:00.373Z,0.80
2023-03-30T18:08:27.488Z,0.65
2023-03-30T18:10:59.014Z,0.60
2023-03-30T18:13:27.344Z,0.50
2023-03-30T18:15:55.987Z,0.65
2023-03-30T18:18:25.229Z,1.05
2023-03-30T18:21:02.480Z,1.00
2023-03-30T18:23:31.439Z,0.70
2023-03-30T18:25:58.084Z,0.82
2023-03-30T18:28:26.650Z,1.65
2023-03-30T18:30:55.292Z,2.00
2023-03-30T18:33:22.176Z,1.73
2023-03-30T18:35:51.027Z,1.75
2023-03-30T18:38:20.264Z,1.27
2023-03-30T18:40:49.444Z,0.93
2023-03-30T18:43:16.440Z,0.70
2023-03-30T18:45:46.226Z,0.80
2023-03-30T18:48:15.331Z,0.60
2023-03-30T18:50:46.895Z,0.82
2023-03-30T18:53:15.994Z,0.82
2023-03-30T18:55:48.106Z,0.95
2023-03-30T18:58:23.063Z,0.95
2023-03-30T19:00:51.667Z,1.15
2023-03-30T19:03:19.918Z,0.80
2023-03-30T19:05:47.238Z,1.55
2023-03-30T19:08:17.076Z,0.88
2023-03-30T19:10:45.613Z,0.95
2023-03-30T19:13:17.488Z,0.95
2023-03-30T19:15:45.210Z,1.15
2023-03-30T19:18:12.572Z,1.55
2023-03-30T19:20:41.138Z,0.88
2023-03-30T19:23:10.661Z,1.13
2023-03-30T19:25:37.284Z,1.10
2023-03-30T19:28:04.914Z,0.95
2023-03-30T19:30:34.899Z,1.10
2023-03-30T19:33:06.483Z,1.20
2023-03-30T19:35:33.526Z,0.70
2023-03-30T19:38:00.903Z,1.13
2023-03-30T19:40:27.551Z,1.00
2023-03-30T19:42:54.178Z,1.00
2023-03-30T19:45:22.865Z,1.42
2023-03-30T19:47:50.085Z,1.10
2023-03-30T19:50:19.297Z,1.20
2023-03-30T19:52:48.604Z,1.10
2023-03-30T19:55:16.587Z,1.10
2023-03-30T19:57:43.512Z,1.63
2023-03-30T20:00:18.078Z,1.00
2023-03-30T20:02:47.324Z,1.70
2023-03-30T20:05:15.275Z,1.98
2023-03-30T20:07:42.831Z,1.23
2023-03-30T20:10:12.296Z,1.17
2023-03-30T20:12:39.402Z,0.95
2023-03-30T20:15:08.265Z,1.00
2023-03-30T20:17:36.180Z,1.00
2023-03-30T20:20:07.084Z,1.05
2023-03-30T20:22:38.681Z,0.80
2023-03-30T20:25:07.931Z,1.20
2023-03-30T20:27:35.674Z,2.03
2023-03-30T20:30:04.249Z,1.00
2023-03-30T20:32:31.244Z,1.25
2023-03-30T20:34:57.899Z,0.82
2023-03-30T20:37:24.570Z,1.00
2023-03-30T20:39:51.225Z,1.20
2023-03-30T20:42:25.754Z,1.42
2023-03-30T20:44:53.347Z,0.90
2023-03-30T20:47:23.211Z,0.90
2023-03-30T20:49:49.890Z,0.70
2023-03-30T20:52:16.972Z,1.00
2023-03-30T20:54:44.930Z,1.40
2023-03-30T20:57:12.000Z,1.50
2023-03-30T20:59:39.478Z,0.95
2023-03-30T21:02:06.439Z,1.02
2023-03-30T21:04:33.667Z,1.10
2023-03-30T21:07:00.772Z,1.38
2023-03-30T21:09:27.618Z,1.00
2023-03-30T21:11:54.546Z,0.90
2023-03-30T21:14:21.141Z,1.10
2023-03-30T21:16:47.830Z,1.23
2023-03-30T21:19:14.438Z,0.90
2023-03-30T21:21:41.125Z,0.68
2023-03-30T21:24:09.754Z,1.13
2023-03-30T21:26:36.849Z,1.08
2023-03-30T21:29:05.004Z,1.38
2023-03-30T21:31:31.856Z,0.93
2023-03-30T21:33:58.640Z,1.00
2023-03-30T21:36:25.391Z,1.00
2023-03-30T21:38:52.060Z,0.90
2023-03-30T21:41:23.607Z,1.70
2023-03-30T21:43:50.256Z,3.65
2023-03-30T21:46:20.892Z,1.98
2023-03-30T21:48:51.152Z,2.22
2023-03-30T21:51:24.801Z,2.67
2023-03-30T21:53:53.127Z,2.00
2023-03-30T21:56:22.284Z,2.10
2023-03-30T21:58:49.090Z,1.98
2023-03-30T22:01:16.154Z,1.77
2023-03-30T22:03:44.765Z,2.08
2023-03-30T22:06:13.475Z,2.47
2023-03-30T22:08:40.514Z,1.70
2023-03-30T22:11:11.523Z,1.30
2023-03-30T22:13:38.180Z,1.58
2023-03-30T22:16:12.537Z,1.33
2023-03-30T22:18:40.446Z,1.83
2023-03-30T22:21:08.714Z,1.48
2023-03-30T22:23:35.417Z,1.00
2023-03-30T22:26:02.079Z,1.13
2023-03-30T22:28:28.766Z,1.58
2023-03-30T22:30:55.479Z,1.05
2023-03-30T22:33:22.150Z,1.00
2023-03-30T22:35:49.004Z,0.68
2023-03-30T22:38:16.435Z,0.70
2023-03-30T22:40:43.360Z,0.90
2023-03-30T22:43:11.721Z,0.88
2023-03-30T22:45:38.957Z,0.70
2023-03-30T22:48:06.288Z,1.00
2023-03-30T22:50:33.919Z,0.70
2023-03-30T22:53:00.812Z,1.15
2023-03-30T22:55:27.736Z,1.10
2023-03-30T22:57:56.558Z,1.02
2023-03-30T23:00:24.593Z,1.00
2023-03-30T23:02:51.659Z,0.80
2023-03-30T23:05:21.531Z,0.98
2023-03-30T23:07:49.553Z,1.05
2023-03-30T23:10:22.158Z,1.05
2023-03-30T23:12:48.936Z,0.83
2023-03-30T23:15:18.277Z,1.13
2023-03-30T23:17:47.371Z,0.98
2023-03-30T23:20:15.324Z,1.10
2023-03-30T23:22:42.432Z,0.80
2023-03-30T23:25:10.708Z,1.10
2023-03-30T23:27:37.840Z,0.93
2023-03-30T23:30:05.756Z,1.05
2023-03-30T23:32:34.024Z,1.10
2023-03-30T23:35:01.257Z,1.00
2023-03-30T23:37:30.101Z,1.13
2023-03-30T23:39:58.844Z,1.33
2023-03-30T23:42:25.780Z,1.27
2023-03-30T23:44:52.457Z,1.55
2023-03-30T23:47:20.295Z,1.00
2023-03-30T23:49:46.956Z,1.23
2023-03-30T23:52:13.595Z,1.20
2023-03-30T23:54:40.953Z,1.10
2023-03-30T23:57:08.604Z,1.35
2023-03-30T23:59:36.473Z,1.42
